createdAt,value
2023-04-30T00:01:09.650Z,100.00
2023-04-30T00:03:36.877Z,100.00
2023-04-30T00:06:03.990Z,100.00
2023-04-30T00:08:31.020Z,100.00
2023-04-30T00:10:57.910Z,100.00
2023-04-30T00:13:24.773Z,100.00
2023-04-30T00:15:51.700Z,100.00
2023-04-30T00:18:18.610Z,100.00
2023-04-30T00:20:45.456Z,100.00
2023-04-30T00:23:12.332Z,100.00
2023-04-30T00:25:39.183Z,100.00
2023-04-30T00:28:06.037Z,100.00
2023-04-30T00:30:32.943Z,100.00
2023-04-30T00:32:59.857Z,100.00
2023-04-30T00:35:26.756Z,100.00
2023-04-30T00:37:53.633Z,100.00
2023-04-30T00:40:20.996Z,100.00
2023-04-30T00:42:48.941Z,100.00
2023-04-30T00:45:17.936Z,100.00
2023-04-30T00:47:44.980Z,100.00
2023-04-30T00:50:16.113Z,100.00
2023-04-30T00:52:43.775Z,100.00
2023-04-30T00:55:12.570Z,100.00
2023-04-30T00:57:41.288Z,100.00
2023-04-30T01:00:11.311Z,100.00
2023-04-30T01:02:38.854Z,100.00
2023-04-30T01:05:07.078Z,100.00
2023-04-30T01:07:36.609Z,100.00
2023-04-30T01:10:03.750Z,100.00
2023-04-30T01:12:49.590Z,100.00
2023-04-30T01:15:29.465Z,100.00
2023-04-30T01:18:15.143Z,100.00
2023-04-30T01:20:49.100Z,100.00
2023-04-30T01:23:34.693Z,100.00
2023-04-30T01:26:21.474Z,100.00
2023-04-30T01:28:52.028Z,100.00
2023-04-30T01:31:19.937Z,100.00
2023-04-30T01:33:47.148Z,100.00
2023-04-30T01:36:32.250Z,100.00
2023-04-30T01:40:00.950Z,100.00
2023-04-30T01:43:03.015Z,100.00
2023-04-30T01:45:48.702Z,100.00
2023-04-30T01:48:30.733Z,100.00
2023-04-30T01:51:13.040Z,100.00
2023-04-30T01:53:43.211Z,100.00
2023-04-30T01:56:21.888Z,100.00
2023-04-30T01:58:50.195Z,100.00
2023-04-30T02:01:31.304Z,100.00
2023-04-30T02:03:58.867Z,100.00
2023-04-30T02:06:30.485Z,100.00
2023-04-30T02:09:02.679Z,100.00
2023-04-30T02:11:30.437Z,100.00
2023-04-30T02:13:57.313Z,100.00
2023-04-30T02:16:24.767Z,100.00
2023-04-30T02:18:51.914Z,100.00
2023-04-30T02:21:18.856Z,100.00
2023-04-30T02:23:46.137Z,100.00
2023-04-30T02:26:12.995Z,100.00
2023-04-30T02:28:39.924Z,100.00
2023-04-30T02:31:07.123Z,100.00
2023-04-30T02:33:34.002Z,100.00
2023-04-30T02:36:01.037Z,100.00
2023-04-30T02:38:28.347Z,100.00
2023-04-30T02:40:55.264Z,100.00
2023-04-30T02:43:22.174Z,100.00
2023-04-30T02:45:49.341Z,100.00
2023-04-30T02:48:16.278Z,100.00
2023-04-30T02:50:43.288Z,100.00
2023-04-30T02:53:10.193Z,100.00
2023-04-30T02:55:37.030Z,100.00
2023-04-30T02:58:04.380Z,100.00
2023-04-30T03:00:31.247Z,100.00
2023-04-30T03:02:58.213Z,100.00
2023-04-30T03:05:25.086Z,100.00
2023-04-30T03:07:51.944Z,100.00
2023-04-30T03:10:19.388Z,100.00
2023-04-30T03:12:46.210Z,100.00
2023-04-30T03:15:13.178Z,100.00
2023-04-30T03:17:40.117Z,100.00
2023-04-30T03:20:07.730Z,100.00
2023-04-30T03:22:34.693Z,100.00
2023-04-30T03:25:01.551Z,100.00
2023-04-30T03:27:28.448Z,100.00
2023-04-30T03:29:55.557Z,100.00
2023-04-30T03:32:22.974Z,100.00
2023-04-30T03:34:50.551Z,100.00
2023-04-30T03:37:17.536Z,100.00
2023-04-30T03:39:44.405Z,100.00
2023-04-30T03:42:11.300Z,100.00
2023-04-30T03:44:39.289Z,100.00
2023-04-30T03:47:06.267Z,100.00
2023-04-30T03:49:33.630Z,100.00
2023-04-30T03:52:01.263Z,100.00
2023-04-30T03:54:28.162Z,100.00
2023-04-30T03:56:55.226Z,100.00
2023-04-30T03:59:22.147Z,100.00
2023-04-30T04:01:49.183Z,100.00
2023-04-30T04:04:16.225Z,100.00
2023-04-30T04:06:43.650Z,100.00
2023-04-30T04:09:10.710Z,100.00
2023-04-30T04:11:41.723Z,100.00
2023-04-30T04:14:08.665Z,100.00
2023-04-30T04:16:35.637Z,100.00
2023-04-30T04:19:02.557Z,100.00
2023-04-30T04:21:29.477Z,100.00
2023-04-30T04:23:57.319Z,100.00
2023-04-30T04:26:25.792Z,100.00
2023-04-30T04:28:53.108Z,100.00
2023-04-30T04:31:21.028Z,100.00
2023-04-30T04:33:47.995Z,100.00
2023-04-30T04:36:14.854Z,100.00
2023-04-30T04:38:42.269Z,100.00
2023-04-30T04:41:09.244Z,100.00
2023-04-30T04:43:37.286Z,100.00
2023-04-30T04:46:04.490Z,100.00
2023-04-30T04:48:31.447Z,100.00
2023-04-30T04:50:58.350Z,100.00
2023-04-30T04:53:25.323Z,100.00
2023-04-30T04:55:52.589Z,100.00
2023-04-30T04:58:19.613Z,100.00
2023-04-30T05:00:46.435Z,100.00
2023-04-30T05:03:14.603Z,100.00
2023-04-30T05:05:41.745Z,100.00
2023-04-30T05:08:08.623Z,100.00
2023-04-30T05:10:36.444Z,100.00
2023-04-30T05:13:03.373Z,100.00
2023-04-30T05:15:30.247Z,100.00
2023-04-30T05:17:57.245Z,100.00
2023-04-30T05:20:24.177Z,100.00
2023-04-30T05:22:51.069Z,100.00
2023-04-30T05:25:17.937Z,100.00
2023-04-30T05:27:44.900Z,100.00
2023-04-30T05:30:12.246Z,100.00
2023-04-30T05:32:39.125Z,100.00
2023-04-30T05:35:06.362Z,100.00
2023-04-30T05:37:33.204Z,100.00
2023-04-30T05:40:00.229Z,100.00
2023-04-30T05:42:27.185Z,100.00
2023-04-30T05:44:54.613Z,100.00
2023-04-30T05:47:21.511Z,100.00
2023-04-30T05:49:48.319Z,100.00
2023-04-30T05:52:17.539Z,100.00
2023-04-30T05:54:44.537Z,100.00
2023-04-30T05:57:11.459Z,100.00
2023-04-30T05:59:38.296Z,100.00
2023-04-30T06:02:05.224Z,100.00
2023-04-30T06:04:32.188Z,100.00
2023-04-30T06:06:59.168Z,100.00
2023-04-30T06:09:26.230Z,100.00
2023-04-30T06:11:53.444Z,100.00
2023-04-30T06:14:20.548Z,100.00
2023-04-30T06:16:47.637Z,100.00
2023-04-30T06:19:14.596Z,100.00
2023-04-30T06:21:43.724Z,100.00
2023-04-30T06:24:10.903Z,100.00
2023-04-30T06:26:38.930Z,100.00
2023-04-30T06:29:06.265Z,100.00
2023-04-30T06:31:33.225Z,100.00
2023-04-30T06:34:00.107Z,100.00
2023-04-30T06:36:27.016Z,100.00
2023-04-30T06:38:53.827Z,100.00
2023-04-30T06:41:21.198Z,100.00
2023-04-30T06:43:48.106Z,100.00
2023-04-30T06:46:15.420Z,100.00
2023-04-30T06:48:42.314Z,100.00
2023-04-30T06:51:10.489Z,100.00
2023-04-30T06:53:37.782Z,100.00
2023-04-30T06:56:04.911Z,100.00
2023-04-30T06:58:31.769Z,100.00
2023-04-30T07:00:58.744Z,100.00
2023-04-30T07:03:25.793Z,100.00
2023-04-30T07:05:54.234Z,100.00
2023-04-30T07:08:21.485Z,100.00
2023-04-30T07:10:48.349Z,100.00
2023-04-30T07:13:15.214Z,100.00
2023-04-30T07:15:42.515Z,100.00
2023-04-30T07:18:10.383Z,100.00
2023-04-30T07:20:37.439Z,100.00
2023-04-30T07:23:04.265Z,100.00
2023-04-30T07:25:31.272Z,100.00
2023-04-30T07:27:58.145Z,100.00
2023-04-30T07:30:25.411Z,100.00
2023-04-30T07:32:52.504Z,100.00
2023-04-30T07:35:19.413Z,100.00
2023-04-30T07:37:46.351Z,100.00
2023-04-30T07:40:19.321Z,100.00
2023-04-30T07:42:52.489Z,100.00
2023-04-30T07:45:19.343Z,100.00
2023-04-30T07:47:46.671Z,100.00
2023-04-30T07:50:15.084Z,100.00
2023-04-30T07:52:42.500Z,100.00
2023-04-30T07:55:09.660Z,100.00
2023-04-30T07:57:36.528Z,100.00
2023-04-30T08:00:04.296Z,100.00
2023-04-30T08:02:39.365Z,100.00
2023-04-30T08:05:06.581Z,100.00
2023-04-30T08:07:33.471Z,100.00
2023-04-30T08:10:00.343Z,100.00
2023-04-30T08:12:27.294Z,100.00
2023-04-30T08:15:04.290Z,100.00
2023-04-30T08:17:34.995Z,100.00
2023-04-30T08:20:06.362Z,100.00
2023-04-30T08:22:33.648Z,100.00
2023-04-30T08:25:02.100Z,100.00
2023-04-30T08:27:31.596Z,100.00
2023-04-30T08:29:58.723Z,100.00
2023-04-30T08:32:26.215Z,100.00
2023-04-30T08:34:54.675Z,100.00
2023-04-30T08:37:21.760Z,100.00
2023-04-30T08:39:48.606Z,100.00
2023-04-30T08:42:21.510Z,100.00
2023-04-30T08:44:48.576Z,100.00
2023-04-30T08:47:17.282Z,100.00
2023-04-30T08:49:46.270Z,100.00
2023-04-30T08:52:13.283Z,99.73
2023-04-30T08:54:40.170Z,97.75
2023-04-30T08:57:07.643Z,95.94
2023-04-30T08:59:34.598Z,95.50
2023-04-30T09:02:02.432Z,97.49
2023-04-30T09:04:29.567Z,95.64
2023-04-30T09:06:59.491Z,96.36
2023-04-30T09:09:33.603Z,93.45
2023-04-30T09:12:20.709Z,93.79
2023-04-30T09:15:05.352Z,86.18
2023-04-30T09:17:34.450Z,82.29
2023-04-30T09:20:12.427Z,81.96
2023-04-30T09:22:41.498Z,78.97
2023-04-30T09:25:09.765Z,78.69
2023-04-30T09:27:36.721Z,79.96
2023-04-30T09:30:03.898Z,78.17
2023-04-30T09:32:30.828Z,79.75
2023-04-30T09:34:57.680Z,75.09
2023-04-30T09:37:38.716Z,72.68
2023-04-30T09:40:06.385Z,72.59
2023-04-30T09:42:33.410Z,73.82
2023-04-30T09:45:00.314Z,72.89
2023-04-30T09:47:30.327Z,74.27
2023-04-30T09:50:00.387Z,73.62
2023-04-30T09:52:27.449Z,70.02
2023-04-30T09:54:54.361Z,69.05
2023-04-30T09:57:24.482Z,69.27
2023-04-30T09:59:53.837Z,69.75
2023-04-30T10:02:23.718Z,69.76
2023-04-30T10:04:56.225Z,70.29
2023-04-30T10:07:25.462Z,67.90
2023-04-30T10:10:07.869Z,67.96
2023-04-30T10:12:50.588Z,67.75
2023-04-30T10:15:31.210Z,66.99
2023-04-30T10:18:02.493Z,65.47
2023-04-30T10:20:30.886Z,64.13
2023-04-30T10:22:58.107Z,63.08
2023-04-30T10:25:28.360Z,63.33
2023-04-30T10:27:55.376Z,64.19
2023-04-30T10:30:22.866Z,66.01
2023-04-30T10:32:56.014Z,63.78
2023-04-30T10:35:28.870Z,60.72
2023-04-30T10:38:04.954Z,61.43
2023-04-30T10:40:37.350Z,59.95
2023-04-30T10:43:04.389Z,61.34
2023-04-30T10:45:41.699Z,63.42
2023-04-30T10:48:08.829Z,64.10
2023-04-30T10:50:46.856Z,63.53
2023-04-30T10:53:19.980Z,63.32
2023-04-30T10:55:51.586Z,63.00
2023-04-30T10:58:25.500Z,64.22
2023-04-30T11:01:01.650Z,64.65
2023-04-30T11:03:29.364Z,61.94
2023-04-30T11:05:56.570Z,61.78
2023-04-30T11:08:37.583Z,62.09
2023-04-30T11:11:05.555Z,63.42
2023-04-30T11:13:42.495Z,64.04
2023-04-30T11:16:09.779Z,64.69
2023-04-30T11:18:46.552Z,64.08
2023-04-30T11:21:14.184Z,63.13
2023-04-30T11:23:45.731Z,61.13
2023-04-30T11:26:13.037Z,61.87
2023-04-30T11:28:51.641Z,62.19
2023-04-30T11:31:18.820Z,64.44
2023-04-30T11:33:46.651Z,64.67
2023-04-30T11:36:14.750Z,63.92
2023-04-30T11:38:42.155Z,65.38
2023-04-30T11:41:13.208Z,62.83
2023-04-30T11:43:40.285Z,61.36
2023-04-30T11:46:17.719Z,61.41
2023-04-30T11:48:47.010Z,61.81
2023-04-30T11:51:27.152Z,60.18
2023-04-30T11:53:54.386Z,62.11
2023-04-30T11:56:22.788Z,61.33
2023-04-30T11:58:50.768Z,60.13
2023-04-30T12:01:18.439Z,59.22
2023-04-30T12:03:47.479Z,60.11
2023-04-30T12:06:26.650Z,61.15
2023-04-30T12:08:55.348Z,61.34
2023-04-30T12:11:27.833Z,63.26
2023-04-30T12:14:03.653Z,62.61
2023-04-30T12:16:49.627Z,63.23
2023-04-30T12:19:21.594Z,64.37
2023-04-30T12:21:49.928Z,66.20
2023-04-30T12:24:18.885Z,61.97
2023-04-30T12:26:46.394Z,60.47
2023-04-30T12:29:16.888Z,58.93
2023-04-30T12:31:44.694Z,60.72
2023-04-30T12:34:15.408Z,62.46
2023-04-30T12:36:43.438Z,61.79
2023-04-30T12:39:16.308Z,59.12
2023-04-30T12:41:48.704Z,57.88
2023-04-30T12:44:24.979Z,59.12
2023-04-30T12:46:58.274Z,61.35
2023-04-30T12:49:34.946Z,60.68
2023-04-30T12:52:04.643Z,61.37
2023-04-30T12:54:32.967Z,61.66
2023-04-30T12:57:01.877Z,59.94
2023-04-30T12:59:32.796Z,58.86
2023-04-30T13:02:12.141Z,60.44
2023-04-30T13:04:40.472Z,59.75
2023-04-30T13:07:07.506Z,59.30
2023-04-30T13:09:36.814Z,58.67
2023-04-30T13:12:04.876Z,59.41
2023-04-30T13:14:32.472Z,62.08
2023-04-30T13:16:59.533Z,62.40
2023-04-30T13:19:27.077Z,64.17
2023-04-30T13:21:54.056Z,65.06
2023-04-30T13:24:21.190Z,64.50
2023-04-30T13:26:48.415Z,65.53
2023-04-30T13:29:15.377Z,63.99
2023-04-30T13:31:42.696Z,62.30
2023-04-30T13:34:10.322Z,60.24
2023-04-30T13:36:37.227Z,59.12
2023-04-30T13:39:05.096Z,57.99
2023-04-30T13:41:32.267Z,59.57
2023-04-30T13:44:00.364Z,61.03
2023-04-30T13:46:27.387Z,62.43
2023-04-30T13:48:54.292Z,62.96
2023-04-30T13:51:21.245Z,63.14
2023-04-30T13:53:48.273Z,62.88
2023-04-30T13:56:15.724Z,63.85
2023-04-30T13:58:42.764Z,63.74
2023-04-30T14:01:10.652Z,63.27
2023-04-30T14:03:37.852Z,63.13
2023-04-30T14:06:06.135Z,62.89
2023-04-30T14:08:34.041Z,61.34
2023-04-30T14:11:01.445Z,58.94
2023-04-30T14:13:28.334Z,59.43
2023-04-30T14:15:56.321Z,60.25
2023-04-30T14:18:23.348Z,59.53
2023-04-30T14:20:50.279Z,58.54
2023-04-30T14:23:17.223Z,58.48
2023-04-30T14:25:44.670Z,59.44
2023-04-30T14:28:12.194Z,60.40
2023-04-30T14:30:39.253Z,60.38
2023-04-30T14:33:06.273Z,60.60
2023-04-30T14:35:36.089Z,61.61
2023-04-30T14:38:02.968Z,62.64
2023-04-30T14:40:32.082Z,60.81
2023-04-30T14:42:58.941Z,62.40
2023-04-30T14:45:28.468Z,61.83
2023-04-30T14:47:55.650Z,58.58
2023-04-30T14:50:25.227Z,58.57
2023-04-30T14:52:52.033Z,59.50
2023-04-30T14:55:19.058Z,60.12
2023-04-30T14:57:46.097Z,59.76
2023-04-30T15:00:13.694Z,60.21
2023-04-30T15:02:40.674Z,61.32
2023-04-30T15:05:08.830Z,60.32
2023-04-30T15:07:37.081Z,61.19
2023-04-30T15:10:04.216Z,63.64
2023-04-30T15:12:31.170Z,63.90
2023-04-30T15:14:58.226Z,66.40
2023-04-30T15:17:25.257Z,66.66
2023-04-30T15:19:53.793Z,66.84
2023-04-30T15:22:21.383Z,66.14
2023-04-30T15:24:48.197Z,66.23
2023-04-30T15:27:15.086Z,65.82
2023-04-30T15:29:41.954Z,65.29
2023-04-30T15:32:09.299Z,65.67
2023-04-30T15:34:36.181Z,66.50
2023-04-30T15:37:03.126Z,65.46
2023-04-30T15:39:30.092Z,62.72
2023-04-30T15:41:57.018Z,60.63
2023-04-30T15:44:24.009Z,59.40
2023-04-30T15:46:51.880Z,59.85
2023-04-30T15:49:19.083Z,60.27
2023-04-30T15:51:46.517Z,60.45
2023-04-30T15:54:14.215Z,60.01
2023-04-30T15:56:41.422Z,62.18
2023-04-30T15:59:08.304Z,64.59
2023-04-30T16:01:35.209Z,64.76
2023-04-30T16:04:02.280Z,66.03
2023-04-30T16:06:30.262Z,64.97
2023-04-30T16:08:57.419Z,65.78
2023-04-30T16:11:24.439Z,66.93
2023-04-30T16:13:54.622Z,66.36
2023-04-30T16:16:21.641Z,65.67
2023-04-30T16:18:48.629Z,66.24
2023-04-30T16:21:16.178Z,65.03
2023-04-30T16:23:43.345Z,65.09
2023-04-30T16:26:10.262Z,64.20
2023-04-30T16:28:37.328Z,65.12
2023-04-30T16:31:04.528Z,65.50
2023-04-30T16:33:31.408Z,65.64
2023-04-30T16:35:58.305Z,64.47
2023-04-30T16:38:25.211Z,63.84
2023-04-30T16:40:52.331Z,64.08
2023-04-30T16:43:19.161Z,65.04
2023-04-30T16:45:48.179Z,65.23
2023-04-30T16:48:15.453Z,65.00
2023-04-30T16:50:42.430Z,65.27
2023-04-30T16:53:10.974Z,66.12
2023-04-30T16:55:38.046Z,65.08
2023-04-30T16:58:04.941Z,64.83
2023-04-30T17:00:31.924Z,65.63
2023-04-30T17:02:58.906Z,65.08
2023-04-30T17:05:26.481Z,65.21
2023-04-30T17:07:53.341Z,64.82
2023-04-30T17:10:21.798Z,64.92
2023-04-30T17:12:48.855Z,65.29
2023-04-30T17:15:15.812Z,64.50
2023-04-30T17:17:42.967Z,64.91
2023-04-30T17:20:10.445Z,65.21
2023-04-30T17:22:38.524Z,64.84
2023-04-30T17:25:05.791Z,64.81
2023-04-30T17:27:32.682Z,65.17
2023-04-30T17:29:59.618Z,64.97
2023-04-30T17:32:27.247Z,65.68
2023-04-30T17:34:54.215Z,65.78
2023-04-30T17:37:21.118Z,66.45
2023-04-30T17:39:48.012Z,66.03
2023-04-30T17:42:14.960Z,66.00
2023-04-30T17:44:42.001Z,65.86
2023-04-30T17:47:08.862Z,67.16
2023-04-30T17:49:35.830Z,67.56
2023-04-30T17:52:05.909Z,68.15
2023-04-30T17:54:34.067Z,68.40
2023-04-30T17:57:01.335Z,68.06
2023-04-30T17:59:29.506Z,70.05
2023-04-30T18:01:56.779Z,70.62
2023-04-30T18:04:24.078Z,70.85
2023-04-30T18:06:51.718Z,70.43
2023-04-30T18:09:19.043Z,71.44
2023-04-30T18:11:46.293Z,71.78
2023-04-30T18:14:13.228Z,71.75
2023-04-30T18:16:41.499Z,72.23
2023-04-30T18:19:08.488Z,72.51
2023-04-30T18:21:35.540Z,73.46
2023-04-30T18:24:02.951Z,72.76
2023-04-30T18:26:30.120Z,72.78
2023-04-30T18:28:57.901Z,73.12
2023-04-30T18:31:24.795Z,74.33
2023-04-30T18:33:51.702Z,74.93
2023-04-30T18:36:18.584Z,75.38
2023-04-30T18:38:45.911Z,75.52
2023-04-30T18:41:12.962Z,77.11
2023-04-30T18:43:42.724Z,78.46
2023-04-30T18:46:09.725Z,79.51
2023-04-30T18:48:36.761Z,80.04
2023-04-30T18:51:03.696Z,80.86
2023-04-30T18:53:30.871Z,80.87
2023-04-30T18:55:58.193Z,81.25
2023-04-30T18:58:25.154Z,80.71
2023-04-30T19:00:52.086Z,82.11
2023-04-30T19:03:19.120Z,87.61
2023-04-30T19:05:46.057Z,93.94
2023-04-30T19:08:12.908Z,99.18
2023-04-30T19:10:39.821Z,100.00
2023-04-30T19:13:07.143Z,100.00
2023-04-30T19:15:34.059Z,100.00
2023-04-30T19:18:01.551Z,100.00
2023-04-30T19:20:28.522Z,100.00
2023-04-30T19:22:55.568Z,100.00
2023-04-30T19:25:23.654Z,100.00
2023-04-30T19:27:50.622Z,100.00
2023-04-30T19:30:17.650Z,100.00
2023-04-30T19:32:44.766Z,100.00
2023-04-30T19:35:11.792Z,100.00
2023-04-30T19:37:38.655Z,100.00
2023-04-30T19:40:12.363Z,100.00
2023-04-30T19:42:40.209Z,100.00
2023-04-30T19:45:09.784Z,100.00
2023-04-30T19:47:38.330Z,100.00
2023-04-30T19:50:05.837Z,100.00
2023-04-30T19:52:32.787Z,100.00
2023-04-30T19:54:59.920Z,100.00
2023-04-30T19:57:28.323Z,100.00
2023-04-30T19:59:55.377Z,100.00
2023-04-30T20:02:23.094Z,100.00
2023-04-30T20:04:50.386Z,100.00
2023-04-30T20:07:19.237Z,100.00
2023-04-30T20:09:46.698Z,100.00
2023-04-30T20:12:14.129Z,100.00
2023-04-30T20:14:41.480Z,100.00
2023-04-30T20:17:09.143Z,100.00
2023-04-30T20:19:37.005Z,100.00
2023-04-30T20:22:05.006Z,100.00
2023-04-30T20:24:32.309Z,100.00
2023-04-30T20:27:00.187Z,100.00
2023-04-30T20:29:27.673Z,100.00
2023-04-30T20:31:54.692Z,100.00
2023-04-30T20:34:22.483Z,100.00
2023-04-30T20:36:49.998Z,100.00
2023-04-30T20:39:17.591Z,100.00
2023-04-30T20:41:48.160Z,100.00
2023-04-30T20:44:15.103Z,100.00
2023-04-30T20:46:43.461Z,100.00
2023-04-30T20:49:12.097Z,100.00
2023-04-30T20:51:39.740Z,100.00
2023-04-30T20:54:08.871Z,100.00
2023-04-30T20:56:35.951Z,100.00
2023-04-30T20:59:04.951Z,100.00
2023-04-30T21:01:31.980Z,100.00
2023-04-30T21:04:00.418Z,100.00
2023-04-30T21:06:28.288Z,100.00
2023-04-30T21:08:55.279Z,100.00
2023-04-30T21:11:22.153Z,100.00
2023-04-30T21:13:51.342Z,100.00
2023-04-30T21:16:18.867Z,100.00
2023-04-30T21:18:46.542Z,100.00
2023-04-30T21:21:13.566Z,100.00
2023-04-30T21:23:41.682Z,100.00
2023-04-30T21:26:08.779Z,100.00
2023-04-30T21:28:35.709Z,100.00
2023-04-30T21:31:07.514Z,100.00
2023-04-30T21:33:35.570Z,100.00
2023-04-30T21:36:03.404Z,100.00
2023-04-30T21:38:30.284Z,100.00
2023-04-30T21:40:57.498Z,100.00
2023-04-30T21:43:24.361Z,100.00
2023-04-30T21:45:51.275Z,100.00
2023-04-30T21:48:18.619Z,100.00
2023-04-30T21:50:47.219Z,100.00
2023-04-30T21:53:14.750Z,100.00
2023-04-30T21:55:41.981Z,100.00
2023-04-30T21:58:09.307Z,100.00
2023-04-30T22:00:36.551Z,100.00
2023-04-30T22:03:04.189Z,100.00
2023-04-30T22:05:31.935Z,100.00
2023-04-30T22:07:58.844Z,100.00
2023-04-30T22:10:25.721Z,100.00
2023-04-30T22:12:52.690Z,100.00
2023-04-30T22:15:19.577Z,100.00
2023-04-30T22:17:46.735Z,100.00
2023-04-30T22:20:13.662Z,100.00
2023-04-30T22:22:40.609Z,100.00
2023-04-30T22:25:09.296Z,100.00
2023-04-30T22:27:36.359Z,100.00
2023-04-30T22:30:04.180Z,100.00
2023-04-30T22:32:32.552Z,100.00
2023-04-30T22:34:59.573Z,100.00
2023-04-30T22:37:26.581Z,100.00
2023-04-30T22:39:53.568Z,100.00
2023-04-30T22:42:20.526Z,100.00
2023-04-30T22:44:47.417Z,100.00
2023-04-30T22:47:14.574Z,100.00
2023-04-30T22:49:41.805Z,100.00
2023-04-30T22:52:09.060Z,100.00
2023-04-30T22:54:36.251Z,100.00
2023-04-30T22:57:03.356Z,100.00
2023-04-30T22:59:30.279Z,100.00
2023-04-30T23:01:57.449Z,100.00
2023-04-30T23:04:24.604Z,100.00
2023-04-30T23:06:51.591Z,100.00
2023-04-30T23:09:19.493Z,100.00
2023-04-30T23:11:48.510Z,100.00
2023-04-30T23:14:15.515Z,100.00
2023-04-30T23:16:42.910Z,100.00
2023-04-30T23:19:10.698Z,100.00
2023-04-30T23:21:37.860Z,100.00
2023-04-30T23:24:04.952Z,100.00
2023-04-30T23:26:31.963Z,100.00
2023-04-30T23:28:58.932Z,100.00
2023-04-30T23:31:25.859Z,100.00
2023-04-30T23:33:53.058Z,100.00
2023-04-30T23:36:19.965Z,100.00
2023-04-30T23:38:47.075Z,100.00
2023-04-30T23:41:14.406Z,100.00
2023-04-30T23:43:41.383Z,100.00
2023-04-30T23:46:11.067Z,100.00
2023-04-30T23:48:41.107Z,100.00
2023-04-30T23:51:09.101Z,100.00
2023-04-30T23:53:36.102Z,100.00
2023-04-30T23:56:03.130Z,100.00
2023-04-30T23:58:30.617Z,100.00
